Weather at Lubbock Preston Smith International Airport

Public forecast

Using degrees Fahrenheit for public forecast. Weather courtesy of forecast.io.

Current aviation weather report (METAR) for Lubbock Preston Smith International Airport

Retrieved 2020/09/22 15:53 UTC (8 minutes ago):

KLBB 221553Z VRB04KT 9SM CLR 19/13 A3019 RMK AO2 SLP187 HZ ALQDS T01940133

Aviation forecast (TAF) for Lubbock Preston Smith International Airport

Retrieved 2020/09/22 12:22 UTC (4 hours ago):

TAF KLBB 221120Z 2212/2312 VRB05KT P6SM SKC